Time;durP1;ratioP1;P1;durP2;ratioP2;P2;SDS_P1;SDS_P2;PMS_P1;PMS_P2;Temp;Humidity;BMP_temperature;BMP_pressure;BME280_temperature;BME280_humidity;BME280_pressure;Samples;Min_cycle;Max_cycle;Signal;HPM_P1;HPM_P2
2022/11/10 00:00:09;;;;;;;0.00;0.00;;;;;;;15.29;69.44;99989.75;7363626;19;20044;-57
2022/11/10 00:02:34;;;;;;;0.10;0.10;;;;;;;15.30;69.17;99986.19;7359417;19;20385;-57
2022/11/10 00:05:00;;;;;;;0.00;0.00;;;;;;;15.27;68.91;99989.00;7363228;19;20018;-57
2022/11/10 00:07:26;;;;;;;0.00;0.00;;;;;;;15.36;69.20;99987.63;7357501;19;20011;-56
2022/11/10 00:09:53;;;;;;;0.10;0.10;;;;;;;15.37;68.51;100003.38;7362871;19;20024;-56
2022/11/10 00:12:19;;;;;;;0.00;0.00;;;;;;;15.39;69.07;99987.47;7361840;19;20014;-56
2022/11/10 00:17:28;;;;;;;0.10;0.10;;;;;;;15.44;68.49;100009.13;7361216;19;20718;-56
2022/11/10 00:19:54;;;;;;;0.00;0.00;;;;;;;15.45;68.62;100008.19;7362060;19;21361;-56
2022/11/10 00:22:19;;;;;;;0.08;0.08;;;;;;;15.47;68.32;100001.09;7360069;19;20010;-57
2022/11/10 00:24:45;;;;;;;0.05;0.05;;;;;;;15.47;68.20;100007.19;7358084;19;20026;-55
2022/11/10 00:27:12;;;;;;;0.05;0.05;;;;;;;15.46;68.00;100008.13;7359066;19;20040;-56
2022/11/10 00:29:38;;;;;;;0.07;0.07;;;;;;;15.50;67.66;100019.31;7355177;19;20030;-57
2022/11/10 00:32:03;;;;;;;0.00;0.00;;;;;;;15.51;67.55;100021.00;7353459;19;20014;-56
2022/11/10 00:34:29;;;;;;;0.00;0.00;;;;;;;15.51;67.70;100027.16;7353437;19;20022;-55
2022/11/10 00:36:54;;;;;;;0.10;0.10;;;;;;;15.51;67.27;100010.50;7355315;19;20006;-56
2022/11/10 00:39:19;;;;;;;0.10;0.10;;;;;;;15.50;67.41;100017.53;7353758;19;20026;-56
2022/11/10 00:41:45;;;;;;;0.05;0.05;;;;;;;15.45;67.11;100039.78;7355312;19;20002;-57
2022/11/10 00:44:10;;;;;;;0.00;0.00;;;;;;;15.50;66.89;100029.84;7361927;19;20100;-55
2022/11/10 00:46:36;;;;;;;0.10;0.10;;;;;;;15.53;67.13;100029.69;7360472;19;20006;-57
2022/11/10 00:49:01;;;;;;;0.00;0.00;;;;;;;15.55;67.07;100022.56;7361163;19;20082;-56
2022/11/10 00:51:28;;;;;;;0.03;0.03;;;;;;;15.51;67.00;100015.75;7360480;19;20548;-56
2022/11/10 00:53:54;;;;;;;0.10;0.10;;;;;;;15.55;66.39;100033.94;7359973;19;20090;-56
2022/11/10 00:56:20;;;;;;;0.00;0.00;;;;;;;15.56;66.10;100032.16;7361004;19;20014;-57
2022/11/10 00:58:46;;;;;;;0.00;0.00;;;;;;;15.54;66.29;100042.75;7360290;19;20031;-56
2022/11/10 01:01:13;;;;;;;0.10;0.10;;;;;;;15.56;66.11;100037.41;7359256;19;20571;-57
2022/11/10 01:03:38;;;;;;;0.10;0.10;;;;;;;15.54;66.04;100041.91;7360341;19;20042;-56
2022/11/10 01:06:10;;;;;;;0.10;0.10;;;;;;;15.56;65.91;100045.31;7357916;19;20426;-56
2022/11/10 01:08:36;;;;;;;0.00;0.00;;;;;;;15.53;66.25;100038.44;7361040;19;20454;-56
2022/11/10 01:11:13;;;;;;;0.00;0.00;;;;;;;15.55;65.94;100038.34;7360597;19;20026;-56
2022/11/10 01:13:38;;;;;;;0.00;0.00;;;;;;;15.47;65.71;100014.25;7359263;19;20085;-56
2022/11/10 01:16:19;;;;;;;0.10;0.10;;;;;;;15.55;65.62;100038.34;7361302;19;23436;-56
2022/11/10 01:18:51;;;;;;;0.00;0.00;;;;;;;15.48;65.77;100018.56;7359945;19;20013;-55
2022/11/10 01:21:19;;;;;;;0.10;0.10;;;;;;;15.46;65.22;100012.53;7357315;19;20010;-57
2022/11/10 01:23:45;;;;;;;0.00;0.00;;;;;;;15.54;65.70;100031.38;7361799;19;20006;-56
2022/11/10 01:26:10;;;;;;;0.10;0.10;;;;;;;15.55;65.72;100048.88;7365630;19;20078;-56
2022/11/10 01:28:36;;;;;;;0.00;0.00;;;;;;;15.53;65.83;100029.69;7366345;19;20014;-56
2022/11/10 01:31:07;;;;;;;0.10;0.10;;;;;;;15.54;65.71;100034.88;7366014;19;20382;-56
2022/11/10 01:33:33;;;;;;;0.00;0.00;;;;;;;15.52;65.48;100022.75;7365895;19;20053;-56
2022/11/10 01:35:59;;;;;;;0.00;0.00;;;;;;;15.49;65.51;100028.16;7365708;19;20018;-57
2022/11/10 01:38:30;;;;;;;0.00;0.00;;;;;;;15.53;65.57;100040.22;7365909;19;20021;-57
2022/11/10 01:40:57;;;;;;;0.00;0.00;;;;;;;15.51;65.50;100024.53;7365273;19;20879;-56
2022/11/10 01:43:24;;;;;;;0.10;0.10;;;;;;;15.51;65.55;100015.75;7365865;19;20022;-55
2022/11/10 01:46:06;;;;;;;0.03;0.03;;;;;;;15.44;65.35;100019.66;7365377;19;20014;-56
2022/11/10 01:48:34;;;;;;;0.00;0.00;;;;;;;15.47;65.62;100019.50;7366942;19;20014;-56
2022/11/10 01:51:12;;;;;;;0.00;0.00;;;;;;;15.47;65.47;100032.66;7364968;19;20548;-56
2022/11/10 01:53:39;;;;;;;;;;;;;;;15.48;64.97;100042.25;7367525;19;20010;-56
2022/11/10 01:56:07;;;;;;;0.10;0.10;;;;;;;15.44;65.35;100025.78;7364327;19;20754;-56
2022/11/10 01:58:38;;;;;;;0.10;0.10;;;;;;;15.44;65.33;100030.19;7366522;19;20007;-56
2022/11/10 02:01:06;;;;;;;0.00;0.00;;;;;;;15.38;65.42;100031.38;7363794;19;20018;-56
2022/11/10 02:03:38;;;;;;;0.05;0.05;;;;;;;15.39;65.64;100016.44;7367088;19;20462;-56
2022/11/10 02:06:05;;;;;;;0.10;0.10;;;;;;;15.36;65.96;100037.63;7365426;19;20018;-56
2022/11/10 02:08:30;;;;;;;0.00;0.00;;;;;;;15.33;66.17;100036.03;7366327;19;20556;-56
2022/11/10 02:10:56;;;;;;;0.00;0.00;;;;;;;15.31;65.63;100028.22;7363694;19;20043;-56
2022/11/10 02:13:21;;;;;;;0.00;0.00;;;;;;;15.29;66.14;100037.94;7363805;19;20015;-55
2022/11/10 02:15:46;;;;;;;0.00;0.00;;;;;;;15.29;65.74;100032.69;7365120;19;20006;-56
2022/11/10 02:18:12;;;;;;;0.10;0.10;;;;;;;15.28;65.88;100049.41;7365620;19;20102;-56
2022/11/10 02:20:37;;;;;;;0.00;0.00;;;;;;;15.21;65.87;100024.38;7364366;19;20022;-56
2022/11/10 02:23:32;;;;;;;0.10;0.10;;;;;;;15.30;65.85;100052.81;7365055;19;20023;-57
2022/11/10 02:25:58;;;;;;;0.00;0.00;;;;;;;15.30;66.38;100033.53;7259988;19;2004123;-56
2022/11/10 02:28:26;;;;;;;0.03;0.03;;;;;;;15.27;66.27;100029.31;7364939;19;20112;-56
2022/11/10 02:30:52;;;;;;;0.10;0.10;;;;;;;15.29;66.43;100006.38;7363671;19;20030;-55
2022/11/10 02:33:18;;;;;;;0.00;0.00;;;;;;;15.31;66.63;100022.13;7365448;19;20024;-56
2022/11/10 02:35:47;;;;;;;0.10;0.10;;;;;;;15.36;66.76;100042.88;7364002;19;20007;-56
2022/11/10 02:38:13;;;;;;;0.10;0.10;;;;;;;15.36;66.73;100032.34;7363457;19;20018;-56
2022/11/10 02:40:39;;;;;;;0.00;0.00;;;;;;;15.38;66.77;100030.53;7362135;19;20027;-55
2022/11/10 02:43:09;;;;;;;0.10;0.10;;;;;;;15.41;66.36;100027.69;7364678;19;20018;-56
2022/11/10 02:45:40;;;;;;;0.00;0.00;;;;;;;15.43;66.65;100049.53;7364467;19;20011;-57
2022/11/10 02:48:06;;;;;;;0.00;0.00;;;;;;;15.34;66.05;100021.94;7363265;19;20073;-56
2022/11/10 02:50:32;;;;;;;0.00;0.00;;;;;;;15.50;66.14;100066.69;7363802;19;20753;-56
2022/11/10 02:52:57;;;;;;;0.08;0.08;;;;;;;15.53;66.58;100071.81;7364702;19;20007;-56
2022/11/10 02:55:23;;;;;;;0.10;0.10;;;;;;;15.53;66.33;100045.50;7362424;19;20014;-56
2022/11/10 02:57:48;;;;;;;0.00;0.00;;;;;;;15.48;66.08;100031.72;7355927;19;20006;-56
2022/11/10 03:00:13;;;;;;;0.10;0.10;;;;;;;15.55;66.15;100051.50;7364397;19;20034;-56
2022/11/10 03:02:39;;;;;;;0.00;0.00;;;;;;;15.62;65.92;100047.63;7365279;19;20027;-56
2022/11/10 03:05:04;;;;;;;0.03;0.03;;;;;;;15.63;65.99;100046.72;7365638;19;20018;-57
2022/11/10 03:07:30;;;;;;;0.00;0.00;;;;;;;15.65;66.07;100052.75;7366561;19;24550;-57
2022/11/10 03:09:55;;;;;;;0.00;0.00;;;;;;;15.65;66.27;100058.00;7364638;19;20514;-54
2022/11/10 03:12:20;;;;;;;0.05;0.05;;;;;;;15.66;65.80;100040.44;7365233;19;20014;-56
2022/11/10 03:14:46;;;;;;;0.00;0.00;;;;;;;15.67;65.77;100037.72;7363215;19;20907;-57
2022/11/10 03:17:11;;;;;;;0.00;0.00;;;;;;;15.67;65.92;100037.72;7367707;19;20010;-56
2022/11/10 03:19:37;;;;;;;0.03;0.03;;;;;;;15.68;65.86;100049.97;7362926;19;20032;-57
2022/11/10 03:22:02;;;;;;;0.00;0.00;;;;;;;15.65;66.09;100049.25;7363692;19;20010;-55
2022/11/10 03:24:27;;;;;;;0.00;0.00;;;;;;;15.68;66.15;100044.69;7364093;19;20006;-56
2022/11/10 03:26:53;;;;;;;0.10;0.10;;;;;;;15.69;65.65;100035.84;7366330;19;20573;-57
2022/11/10 03:29:18;;;;;;;0.03;0.03;;;;;;;15.60;66.05;100028.41;7363690;19;20011;-57
2022/11/10 03:31:44;;;;;;;0.00;0.00;;;;;;;15.71;65.67;100030.50;7365581;19;20010;-56
2022/11/10 03:34:09;;;;;;;0.00;0.00;;;;;;;15.68;66.20;100023.63;7365203;19;20018;-56
2022/11/10 03:36:35;;;;;;;0.00;0.00;;;;;;;15.65;66.22;100031.69;7362478;19;20116;-57
2022/11/10 03:39:00;;;;;;;0.00;0.00;;;;;;;15.60;66.36;100025.78;7364752;19;20461;-56
2022/11/10 03:41:26;;;;;;;0.10;0.10;;;;;;;15.64;65.94;100016.84;7365349;19;20013;-56
2022/11/10 03:43:51;;;;;;;0.10;0.10;;;;;;;15.65;66.03;100015.88;7363833;19;20037;-56
2022/11/10 03:46:17;;;;;;;0.10;0.10;;;;;;;15.65;65.86;100013.25;7362949;19;19998;-56
2022/11/10 03:48:43;;;;;;;0.00;0.00;;;;;;;15.67;65.79;100011.41;7364602;19;20002;-56
2022/11/10 03:51:08;;;;;;;0.00;0.00;;;;;;;15.64;65.71;100001.03;7364409;19;20039;-56
2022/11/10 03:53:34;;;;;;;0.00;0.00;;;;;;;15.67;66.13;100005.31;7365334;19;20406;-54
2022/11/10 03:56:00;;;;;;;0.10;0.10;;;;;;;15.67;66.36;100021.09;7365745;19;20010;-56
2022/11/10 03:58:26;;;;;;;0.00;0.00;;;;;;;15.68;65.82;100017.53;7363084;19;20368;-56
2022/11/10 04:00:55;;;;;;;0.00;0.00;;;;;;;15.67;66.11;100035.09;7364169;19;20051;-56
2022/11/10 04:03:20;;;;;;;0.10;0.10;;;;;;;15.66;65.98;100025.50;7361430;19;20105;-55
2022/11/10 04:15:40;;;;;;;0.05;0.05;;;;;;;15.62;66.60;100010.78;7365683;19;20022;-56
2022/11/10 04:16:55;;;;;;;0.00;0.00;;;;;;;15.75;66.52;100053.94;7260649;19;2004395;-56
2022/11/10 04:19:20;;;;;;;0.10;0.10;;;;;;;15.73;67.21;100042.66;7361821;19;20371;-56
2022/11/10 04:21:46;;;;;;;0.00;0.00;;;;;;;15.75;66.88;100067.09;7361779;19;20018;-56
2022/11/10 04:24:11;;;;;;;0.08;0.08;;;;;;;15.76;66.87;100058.31;7362048;19;20014;-56
2022/11/10 04:26:37;;;;;;;0.00;0.00;;;;;;;15.77;67.06;100054.72;7365605;19;20025;-56
2022/11/10 04:29:05;;;;;;;0.00;0.00;;;;;;;15.78;67.46;100069.59;7363528;19;20021;-55
2022/11/10 04:31:32;;;;;;;0.00;0.00;;;;;;;15.72;67.17;100040.13;7365584;19;20111;-55
2022/11/10 04:33:58;;;;;;;;;;;;;;;15.86;66.48;100048.09;7365749;19;21048;-56
2022/11/10 04:36:26;;;;;;;0.00;0.00;;;;;;;15.85;67.04;100056.06;7365059;19;20861;-56
2022/11/10 04:38:53;;;;;;;0.00;0.00;;;;;;;15.82;67.27;100052.69;7363552;19;20010;-56
2022/11/10 04:41:18;;;;;;;0.08;0.08;;;;;;;15.85;67.30;100056.06;7363292;19;20592;-56
2022/11/10 04:43:44;;;;;;;0.05;0.05;;;;;;;15.86;66.81;100050.72;7365377;19;20071;-56
2022/11/10 04:46:26;;;;;;;0.10;0.10;;;;;;;15.90;67.10;100064.56;7362379;19;20031;-56
2022/11/10 04:48:53;;;;;;;0.03;0.03;;;;;;;15.88;67.11;100077.00;7364531;19;20009;-56
2022/11/10 04:51:21;;;;;;;0.10;0.10;;;;;;;15.89;67.27;100070.78;7363864;19;20108;-56
2022/11/10 04:53:46;;;;;;;0.00;0.00;;;;;;;15.91;67.20;100082.06;7364485;19;20026;-56
2022/11/10 04:56:17;;;;;;;0.00;0.00;;;;;;;15.81;67.09;100045.75;7363047;19;20010;-56
2022/11/10 04:58:43;;;;;;;0.00;0.00;;;;;;;15.94;66.59;100071.38;7360264;19;20003;-56
2022/11/10 05:01:15;;;;;;;0.10;0.10;;;;;;;15.95;66.89;100076.56;7363119;19;20007;-56
2022/11/10 05:03:41;;;;;;;0.00;0.00;;;;;;;15.93;66.79;100059.16;7364636;19;20006;-56
2022/11/10 05:06:07;;;;;;;0.10;0.10;;;;;;;15.91;66.81;100051.31;7363518;19;21467;-56
2022/11/10 05:08:32;;;;;;;0.10;0.10;;;;;;;15.92;67.17;100065.38;7365059;19;20013;-56
2022/11/10 05:10:58;;;;;;;0.10;0.10;;;;;;;15.91;67.42;100072.38;7362926;19;25210;-57
2022/11/10 05:13:23;;;;;;;0.00;0.00;;;;;;;15.93;66.83;100049.47;7364033;19;20007;-56
2022/11/10 05:15:48;;;;;;;0.10;0.10;;;;;;;15.90;67.35;100048.78;7362788;19;20014;-56
2022/11/10 05:18:14;;;;;;;0.00;0.00;;;;;;;15.93;67.49;100035.47;7362853;19;20345;-56
2022/11/10 05:20:39;;;;;;;0.10;0.10;;;;;;;15.95;67.00;100046.75;7364406;19;20006;-56
2022/11/10 05:25:49;;;;;;;0.00;0.00;;;;;;;15.99;67.40;100043.00;7361866;19;20014;-55
2022/11/10 05:28:15;;;;;;;0.10;0.10;;;;;;;15.97;67.52;100055.44;7363492;19;20010;-56
2022/11/10 05:30:41;;;;;;;0.10;0.10;;;;;;;16.00;67.55;100061.34;7362411;19;20014;-56
2022/11/10 05:33:07;;;;;;;0.00;0.00;;;;;;;16.02;67.27;100046.34;7364812;19;20018;-56
2022/11/10 05:35:33;;;;;;;0.10;0.10;;;;;;;16.04;67.71;100049.72;7363031;19;20014;-56
2022/11/10 05:37:58;;;;;;;0.10;0.10;;;;;;;16.06;67.41;100052.25;7363543;19;21370;-53
2022/11/10 05:40:24;;;;;;;0.10;0.10;;;;;;;16.07;67.88;100040.81;7362673;19;20019;-55
2022/11/10 05:42:54;;;;;;;0.00;0.00;;;;;;;15.95;67.29;100020.41;7360234;19;20015;-56
2022/11/10 05:45:22;;;;;;;0.00;0.00;;;;;;;16.12;67.36;100043.16;7363291;19;20082;-56
2022/11/10 05:47:48;;;;;;;0.00;0.00;;;;;;;16.10;67.21;100035.34;7362292;19;20085;-56
2022/11/10 05:50:14;;;;;;;0.03;0.03;;;;;;;16.14;67.93;100041.31;7362455;19;20769;-56
2022/11/10 05:52:46;;;;;;;0.10;0.10;;;;;;;16.19;67.54;100045.38;7362293;19;20010;-56
2022/11/10 05:55:12;;;;;;;0.08;0.08;;;;;;;16.19;67.83;100037.47;7363886;19;20725;-54
2022/11/10 05:57:41;;;;;;;0.00;0.00;;;;;;;16.21;67.91;100032.94;7362886;19;20553;-55
2022/11/10 06:00:08;;;;;;;0.00;0.00;;;;;;;16.21;67.84;100043.50;7362739;19;20015;-56
2022/11/10 06:02:33;;;;;;;0.10;0.10;;;;;;;16.22;67.68;100050.50;7362138;19;20010;-56
2022/11/10 06:04:58;;;;;;;0.00;0.00;;;;;;;16.22;67.84;100026.78;7362201;19;20767;-56
2022/11/10 06:07:24;;;;;;;0.10;0.10;;;;;;;16.22;67.74;100023.25;7361251;19;20026;-56
2022/11/10 06:09:49;;;;;;;0.03;0.03;;;;;;;16.25;67.52;100026.59;7364163;19;20013;-56
2022/11/10 06:12:14;;;;;;;0.00;0.00;;;;;;;16.22;67.92;100034.69;7367271;19;20041;-56
2022/11/10 06:14:40;;;;;;;0.10;0.10;;;;;;;16.24;67.81;100022.25;7367183;19;20023;-56
2022/11/10 06:17:06;;;;;;;0.03;0.03;;;;;;;16.15;67.78;99999.06;7369325;19;20014;-55
2022/11/10 06:19:31;;;;;;;0.00;0.00;;;;;;;16.24;67.93;100010.88;7368987;19;20086;-56
2022/11/10 06:21:56;;;;;;;0.10;0.10;;;;;;;16.23;67.47;100004.75;7369543;19;20030;-55
2022/11/10 06:24:22;;;;;;;0.00;0.00;;;;;;;16.18;67.92;99998.06;7368001;19;20002;-54
2022/11/10 06:26:47;;;;;;;0.10;0.10;;;;;;;16.23;67.31;100006.53;7368303;19;20030;-56
2022/11/10 06:29:13;;;;;;;0.03;0.03;;;;;;;16.22;67.54;100016.25;7368490;19;20373;-56
2022/11/10 06:31:38;;;;;;;0.10;0.10;;;;;;;16.11;67.65;100017.75;7368387;19;21553;-56
2022/11/10 06:34:03;;;;;;;0.00;0.00;;;;;;;16.19;67.47;100018.19;7368620;19;20026;-56
2022/11/10 06:36:29;;;;;;;0.00;0.00;;;;;;;16.19;67.57;100007.66;7367377;19;20012;-56
2022/11/10 06:38:54;;;;;;;0.10;0.10;;;;;;;16.18;67.64;100014.72;7367343;19;20086;-56
2022/11/10 06:41:20;;;;;;;0.00;0.00;;;;;;;16.17;67.28;100023.56;7368289;19;20010;-56
2022/11/10 06:43:45;;;;;;;0.10;0.10;;;;;;;16.17;67.75;100020.91;7367542;19;20033;-56
2022/11/10 06:46:10;;;;;;;0.10;0.10;;;;;;;16.16;67.63;100008.66;7368428;19;19999;-56
2022/11/10 06:48:36;;;;;;;0.00;0.00;;;;;;;16.09;67.69;100012.59;7368225;19;20010;-56
2022/11/10 06:51:01;;;;;;;0.10;0.10;;;;;;;16.12;67.34;100012.44;7367449;19;20010;-56
2022/11/10 06:53:27;;;;;;;0.10;0.10;;;;;;;16.14;67.77;100020.22;7367908;19;20014;-56
2022/11/10 06:55:53;;;;;;;0.10;0.10;;;;;;;16.02;67.46;100005.97;7366697;19;20037;-56
2022/11/10 06:58:18;;;;;;;0.00;0.00;;;;;;;16.10;67.83;100003.75;7356960;19;20078;-56
2022/11/10 07:00:44;;;;;;;0.00;0.00;;;;;;;16.11;67.51;100037.03;7365378;19;20002;-56
2022/11/10 07:03:12;;;;;;;0.00;0.00;;;;;;;16.08;67.37;100010.91;7366229;19;20070;-55
2022/11/10 07:05:38;;;;;;;0.00;0.00;;;;;;;16.11;67.57;100034.41;7363582;19;20039;-56
2022/11/10 07:08:05;;;;;;;0.10;0.10;;;;;;;16.11;67.22;100031.78;7366868;19;20007;-56
2022/11/10 07:10:31;;;;;;;;;;;;;;;16.15;67.00;100049.13;7367150;19;20450;-56
2022/11/10 07:13:01;;;;;;;0.10;0.10;;;;;;;16.13;67.13;100045.72;7364976;19;19919;-56
2022/11/10 07:15:27;;;;;;;0.10;0.10;;;;;;;16.14;67.39;100055.31;7362485;19;20013;-56
2022/11/10 07:17:53;;;;;;;0.08;0.08;;;;;;;16.14;68.21;100034.25;7366704;19;20619;-55
2022/11/10 07:20:18;;;;;;;0.10;0.10;;;;;;;16.16;68.16;100049.97;7361868;19;20011;-56
2022/11/10 07:22:44;;;;;;;0.00;0.00;;;;;;;16.12;68.99;100051.06;7361134;19;20470;-54
2022/11/10 07:25:10;;;;;;;0.00;0.00;;;;;;;16.07;69.20;100048.72;7358910;19;20411;-56
2022/11/10 07:27:36;;;;;;;0.05;0.05;;;;;;;16.00;68.95;100077.16;7359613;19;20109;-56
2022/11/10 07:30:02;;;;;;;0.10;0.10;;;;;;;15.97;69.30;100106.31;7356854;19;20500;-56
2022/11/10 07:32:27;;;;;;;0.03;0.03;;;;;;;15.94;69.53;100092.44;7363114;19;20018;-56
2022/11/10 07:34:53;;;;;;;0.00;0.00;;;;;;;15.93;68.96;100127.63;7355692;19;20017;-56
2022/11/10 07:37:18;;;;;;;0.00;0.00;;;;;;;15.90;69.64;100090.91;7362433;19;20021;-56
2022/11/10 07:39:43;;;;;;;0.10;0.10;;;;;;;15.90;69.45;100093.53;7363736;19;20046;-56
2022/11/10 07:42:09;;;;;;;0.00;0.00;;;;;;;15.90;69.45;100075.09;7359869;19;20007;-55
2022/11/10 07:44:34;;;;;;;0.03;0.03;;;;;;;15.91;69.61;100076.81;7364103;19;20010;-56
2022/11/10 07:46:59;;;;;;;0.03;0.03;;;;;;;15.90;69.62;100069.84;7362169;19;20027;-56
2022/11/10 07:49:25;;;;;;;0.00;0.00;;;;;;;15.92;69.45;100074.09;7362747;19;20006;-56
2022/11/10 07:51:50;;;;;;;0.10;0.10;;;;;;;15.93;69.07;100065.25;7362514;19;20006;-56
2022/11/10 07:54:16;;;;;;;0.10;0.10;;;;;;;15.90;69.00;100067.22;7360334;19;20019;-56
2022/11/10 07:56:41;;;;;;;0.10;0.10;;;;;;;15.93;69.18;100075.81;7357436;19;20984;-56
2022/11/10 07:59:07;;;;;;;0.03;0.03;;;;;;;15.96;69.06;100085.31;7363047;19;20006;-56
2022/11/10 08:01:32;;;;;;;0.00;0.00;;;;;;;15.94;68.65;100071.38;7362179;19;20021;-56
2022/11/10 08:03:58;;;;;;;0.10;0.10;;;;;;;15.99;68.86;100090.41;7350856;19;20030;-55
2022/11/10 08:06:23;;;;;;;0.00;0.00;;;;;;;16.00;68.81;100081.56;7354693;19;20025;-56
2022/11/10 08:08:49;;;;;;;0.10;0.10;;;;;;;15.94;68.64;100082.75;7362886;19;20023;-56
2022/11/10 08:11:15;;;;;;;0.10;0.10;;;;;;;16.03;68.90;100090.16;7365350;19;20021;-56
2022/11/10 08:13:40;;;;;;;0.00;0.00;;;;;;;16.04;68.95;100096.28;7363820;19;20025;-56
2022/11/10 08:16:06;;;;;;;0.10;0.10;;;;;;;16.04;68.67;100083.09;7365533;19;20014;-56
2022/11/10 08:18:31;;;;;;;0.00;0.00;;;;;;;16.08;69.08;100100.44;7354079;19;20097;-55
2022/11/10 08:21:00;;;;;;;0.10;0.10;;;;;;;16.12;68.95;100086.19;7354292;19;20605;-54
2022/11/10 08:23:27;;;;;;;0.10;0.10;;;;;;;16.14;68.49;100084.31;7351317;19;20781;-55
2022/11/10 08:25:53;;;;;;;0.10;0.10;;;;;;;16.19;68.36;100092.78;7357098;19;20014;-56
2022/11/10 08:28:19;;;;;;;0.10;0.10;;;;;;;16.23;68.25;100110.13;7356073;19;20031;-56
2022/11/10 08:30:46;;;;;;;0.10;0.10;;;;;;;16.27;68.31;100116.06;7355406;19;20011;-56
2022/11/10 08:33:14;;;;;;;0.10;0.10;;;;;;;16.31;68.45;100102.63;7354678;19;20010;-55
2022/11/10 08:35:42;;;;;;;0.00;0.00;;;;;;;16.37;68.33;100108.50;7354519;19;20061;-55
2022/11/10 08:38:09;;;;;;;0.10;0.10;;;;;;;16.38;67.76;100099.69;7354953;19;20014;-54
2022/11/10 08:40:34;;;;;;;0.10;0.10;;;;;;;16.42;67.68;100098.53;7353512;19;20764;-55
2022/11/10 08:43:01;;;;;;;0.10;0.10;;;;;;;16.45;67.99;100108.94;7354200;19;20021;-56
2022/11/10 08:45:27;;;;;;;0.08;0.08;;;;;;;16.48;67.50;100106.13;7352929;19;20038;-55
2022/11/10 08:48:06;;;;;;;0.10;0.10;;;;;;;16.49;67.74;100110.47;7355189;19;20007;-56
2022/11/10 08:50:32;;;;;;;0.00;0.00;;;;;;;16.53;67.19;100117.25;7356215;19;20014;-55
2022/11/10 08:53:08;;;;;;;0.08;0.08;;;;;;;16.59;67.42;100122.19;7356404;19;20026;-56
2022/11/10 08:55:34;;;;;;;0.10;0.10;;;;;;;16.56;67.27;100095.97;7357837;19;20023;-54
2022/11/10 08:58:01;;;;;;;0.10;0.10;;;;;;;16.63;67.47;100118.44;7357391;19;20995;-56
2022/11/10 09:00:30;;;;;;;;;;;;;;;16.67;67.39;100112.03;7355733;19;20022;-56
2022/11/10 09:03:02;;;;;;;0.10;0.10;;;;;;;16.59;67.40;100101.09;7355828;19;20772;-56
2022/11/10 09:05:27;;;;;;;0.08;0.08;;;;;;;16.69;67.01;100114.59;7354897;19;20145;-56
2022/11/10 09:07:53;;;;;;;0.10;0.10;;;;;;;16.70;67.04;100103.09;7354504;19;20906;-56
2022/11/10 09:10:18;;;;;;;0.03;0.03;;;;;;;16.61;67.45;100105.31;7354649;19;20011;-56
2022/11/10 09:12:44;;;;;;;0.10;0.10;;;;;;;16.73;67.33;100103.81;7356554;19;20010;-56
2022/11/10 09:15:10;;;;;;;0.10;0.10;;;;;;;16.66;67.34;100097.16;7354762;19;20007;-56
2022/11/10 09:17:36;;;;;;;0.05;0.05;;;;;;;16.80;67.49;100118.34;7355565;19;20018;-55
2022/11/10 09:20:03;;;;;;;0.10;0.10;;;;;;;16.85;67.08;100108.38;7355284;19;20013;-56
2022/11/10 09:22:28;;;;;;;0.00;0.00;;;;;;;16.89;66.80;100122.25;7354943;19;20449;-56
2022/11/10 09:24:53;;;;;;;0.10;0.10;;;;;;;16.91;67.37;100112.44;7355830;19;20015;-55
2022/11/10 09:27:19;;;;;;;0.00;0.00;;;;;;;16.90;67.17;100115.19;7355117;19;20049;-56
2022/11/10 09:29:44;;;;;;;0.00;0.00;;;;;;;16.99;66.90;100119.91;7355487;19;20019;-56
2022/11/10 09:32:10;;;;;;;0.10;0.10;;;;;;;17.02;66.81;100114.44;7356546;19;20013;-55
2022/11/10 09:34:35;;;;;;;0.00;0.00;;;;;;;17.06;66.87;100135.28;7354259;19;20044;-56
2022/11/10 09:37:01;;;;;;;0.10;0.10;;;;;;;17.08;66.82;100125.50;7355367;19;20025;-56
2022/11/10 09:39:26;;;;;;;0.05;0.05;;;;;;;17.14;66.14;100134.00;7352992;19;20025;-56
2022/11/10 09:41:52;;;;;;;0.10;0.10;;;;;;;17.16;66.36;100138.22;7355976;19;20010;-55
2022/11/10 09:44:26;;;;;;;0.10;0.10;;;;;;;17.18;66.42;100146.06;7354803;19;20592;-56
2022/11/10 09:47:13;;;;;;;0.08;0.08;;;;;;;17.26;66.44;100134.13;7361529;19;20024;-56
2022/11/10 09:49:46;;;;;;;0.10;0.10;;;;;;;17.23;67.75;100139.56;7362447;19;20011;-56
2022/11/10 09:52:13;;;;;;;0.10;0.10;;;;;;;17.25;67.86;100176.44;7361767;19;20785;-55
2022/11/10 09:54:52;;;;;;;0.03;0.03;;;;;;;17.16;67.24;100164.63;7362102;19;20026;-55
2022/11/10 09:57:21;;;;;;;0.00;0.00;;;;;;;17.13;68.77;100180.63;7359896;19;20840;-56
2022/11/10 09:59:47;;;;;;;0.10;0.10;;;;;;;17.02;68.61;100173.31;7359913;19;20498;-56
2022/11/10 10:02:49;;;;;;;0.10;0.10;;;;;;;16.94;68.34;100195.81;7355087;19;20029;-56
2022/11/10 10:05:36;;;;;;;0.10;0.10;;;;;;;16.86;69.29;100201.53;7252463;19;2004742;-56
2022/11/10 10:08:11;;;;;;;0.10;0.10;;;;;;;16.70;69.75;100183.06;7360120;19;20014;-56
2022/11/10 10:10:48;;;;;;;0.10;0.10;;;;;;;16.68;70.15;100195.47;7359477;19;20132;-56
2022/11/10 10:13:44;;;;;;;0.10;0.10;;;;;;;16.53;70.20;100176.09;7356694;19;20010;-56
2022/11/10 10:16:15;;;;;;;0.00;0.00;;;;;;;16.55;71.17;100181.28;7256764;19;2004452;-56
2022/11/10 10:18:49;;;;;;;0.10;0.10;;;;;;;16.60;70.69;100171.31;7361338;19;20015;-56
2022/11/10 10:21:23;;;;;;;0.10;0.10;;;;;;;16.62;71.18;100187.91;7360095;19;20717;-56
2022/11/10 10:23:58;;;;;;;0.00;0.00;;;;;;;16.65;70.80;100185.09;7360956;19;20007;-56
2022/11/10 10:26:29;;;;;;;0.00;0.00;;;;;;;16.66;70.79;100168.34;7360232;19;20066;-57
2022/11/10 10:28:57;;;;;;;0.00;0.00;;;;;;;16.69;71.07;100186.63;7359591;19;20031;-56
2022/11/10 10:31:27;;;;;;;0.10;0.10;;;;;;;16.72;70.35;100207.56;7358291;19;20018;-56
2022/11/10 10:33:53;;;;;;;0.08;0.08;;;;;;;16.76;70.26;100188.00;7360798;19;20029;-56
2022/11/10 10:36:28;;;;;;;0.00;0.00;;;;;;;16.75;70.00;100188.09;7360465;19;20014;-56
2022/11/10 10:39:16;;;;;;;0.05;0.05;;;;;;;16.81;69.83;100212.31;7358449;19;20010;-56
2022/11/10 10:41:44;;;;;;;0.00;0.00;;;;;;;16.84;69.61;100212.16;7360721;19;20824;-56
2022/11/10 10:44:16;;;;;;;0.10;0.10;;;;;;;16.89;69.45;100187.31;7359564;19;20054;-56
2022/11/10 10:46:56;;;;;;;0.10;0.10;;;;;;;16.89;69.11;100179.41;7359146;19;20010;-55
2022/11/10 10:49:27;;;;;;;0.00;0.00;;;;;;;16.90;69.16;100179.31;7359158;19;20793;-56
2022/11/10 10:52:04;;;;;;;0.10;0.10;;;;;;;16.97;69.23;100185.09;7359866;19;20561;-57
2022/11/10 10:54:34;;;;;;;;;;;;;;;17.04;69.28;100165.34;7361813;19;20031;-57
2022/11/10 10:57:03;;;;;;;0.10;0.10;;;;;;;17.07;68.47;100180.97;7358566;19;19938;-56
2022/11/10 10:59:29;;;;;;;0.10;0.10;;;;;;;17.11;68.41;100177.22;7358676;19;20010;-55
2022/11/10 11:01:54;;;;;;;0.00;0.00;;;;;;;17.17;68.22;100192.69;7360356;19;20016;-56
2022/11/10 11:04:35;;;;;;;0.00;0.00;;;;;;;17.24;67.07;100193.22;7357694;19;21363;-56
2022/11/10 11:07:03;;;;;;;0.10;0.10;;;;;;;17.27;67.51;100199.13;7358796;19;20453;-57
2022/11/10 11:09:41;;;;;;;0.10;0.10;;;;;;;17.31;66.39;100211.22;7357505;19;20045;-56
2022/11/10 11:12:09;;;;;;;;;;;;;;;17.43;66.52;100198.25;7354769;19;20751;-55
2022/11/10 11:14:34;;;;;;;0.10;0.10;;;;;;;17.41;65.43;100177.22;7351744;19;19929;-56
2022/11/10 11:17:03;;;;;;;0.10;0.10;;;;;;;17.48;66.23;100170.63;7357905;19;20014;-57
2022/11/10 11:19:32;;;;;;;0.00;0.00;;;;;;;17.59;65.24;100181.41;7355547;19;20074;-56
2022/11/10 11:22:05;;;;;;;0.00;0.00;;;;;;;17.68;65.17;100166.78;7357058;19;20439;-56
2022/11/10 11:24:42;;;;;;;0.10;0.10;;;;;;;17.72;65.00;100178.88;7357321;19;20017;-56
2022/11/10 11:27:19;;;;;;;0.10;0.10;;;;;;;17.78;64.88;100170.59;7356578;19;20010;-56
2022/11/10 11:30:07;;;;;;;0.10;0.10;;;;;;;17.85;64.98;100142.88;7355597;19;20011;-56
2022/11/10 11:32:52;;;;;;;0.10;0.10;;;;;;;17.88;64.37;100145.31;7358875;19;20874;-56
2022/11/10 11:35:23;;;;;;;0.10;0.10;;;;;;;17.91;63.84;100156.66;7355469;19;20014;-56
2022/11/10 11:38:01;;;;;;;0.10;0.10;;;;;;;17.99;64.08;100149.09;7356177;19;20015;-56
2022/11/10 11:40:57;;;;;;;0.10;0.10;;;;;;;18.00;62.81;100153.44;7357914;19;20043;-55
2022/11/10 11:43:55;;;;;;;0.10;0.10;;;;;;;18.06;63.63;100187.41;7254206;19;2004571;-56